Time;durP1;ratioP1;P1;durP2;ratioP2;P2;SDS_P1;SDS_P2;PMS_P1;PMS_P2;Temp;Humidity;BMP_temperature;BMP_pressure;BME280_temperature;BME280_humidity;BME280_pressure;Samples;Min_cycle;Max_cycle;Signal;HPM_P1;HPM_P2
2023/05/11 00:01:46;;;;;;;59.75;28.02;;;12.30;99.90;;;;;;5133842;27;20318;-72
2023/05/11 00:04:12;;;;;;;54.88;26.17;;;12.30;99.90;;;;;;5135789;27;20171;-72
2023/05/11 00:06:37;;;;;;;58.97;28.40;;;12.30;99.90;;;;;;5133991;27;20179;-74
2023/05/11 00:09:04;;;;;;;65.35;28.63;;;12.30;99.90;;;;;;5133813;27;20564;-72
2023/05/11 00:11:30;;;;;;;62.63;26.67;;;12.30;99.90;;;;;;5134275;27;20191;-70
2023/05/11 00:13:55;;;;;;;56.63;26.13;;;12.30;99.90;;;;;;5135022;27;20175;-74
2023/05/11 00:16:21;;;;;;;53.90;25.48;;;12.30;99.90;;;;;;5135138;27;20581;-73
2023/05/11 00:18:48;;;;;;;58.25;27.45;;;12.30;99.90;;;;;;5134887;27;20203;-74
2023/05/11 00:21:13;;;;;;;61.38;27.45;;;12.30;99.90;;;;;;5135298;27;20274;-74
2023/05/11 00:23:39;;;;;;;59.17;26.42;;;12.20;99.90;;;;;;5135138;27;20676;-74
2023/05/11 00:26:05;;;;;;;49.38;22.48;;;12.20;99.90;;;;;;5135383;27;20191;-74
2023/05/11 00:28:31;;;;;;;53.10;23.38;;;12.20;99.90;;;;;;5134788;27;20187;-74
2023/05/11 00:30:57;;;;;;;42.85;23.48;;;12.20;99.90;;;;;;5134802;27;20199;-74
2023/05/11 00:33:23;;;;;;;42.40;22.45;;;12.30;99.90;;;;;;5133951;27;20176;-74
2023/05/11 00:35:49;;;;;;;45.60;22.70;;;12.20;99.90;;;;;;5133517;27;20187;-74
2023/05/11 00:38:15;;;;;;;41.90;23.92;;;12.20;99.90;;;;;;5134677;27;20575;-74
2023/05/11 00:40:41;;;;;;;39.58;23.13;;;12.10;99.90;;;;;;5133433;27;20199;-74
2023/05/11 00:43:07;;;;;;;42.83;23.40;;;12.20;99.90;;;;;;5136519;27;20297;-74
2023/05/11 00:45:35;;;;;;;44.42;22.77;;;12.10;99.90;;;;;;5137166;28;20168;-74
2023/05/11 00:48:01;;;;;;;48.72;24.98;;;12.10;99.90;;;;;;5133365;27;20204;-74
2023/05/11 00:50:27;;;;;;;45.38;22.38;;;12.10;99.90;;;;;;5133526;28;20187;-74
2023/05/11 00:52:54;;;;;;;45.08;23.40;;;12.00;99.90;;;;;;5134507;27;20223;-74
2023/05/11 00:55:20;;;;;;;47.75;23.58;;;11.90;99.90;;;;;;5134633;27;20187;-74
2023/05/11 00:57:46;;;;;;;46.38;23.52;;;11.90;99.90;;;;;;5134678;27;20539;-74
2023/05/11 01:00:13;;;;;;;46.88;24.27;;;11.90;99.90;;;;;;5134413;27;20191;-74
2023/05/11 01:02:39;;;;;;;46.05;21.88;;;11.90;99.90;;;;;;5133013;27;20271;-74
2023/05/11 01:05:06;;;;;;;44.78;22.63;;;11.80;99.90;;;;;;5133180;28;20232;-74
2023/05/11 01:07:59;;;;;;;45.80;21.98;;;11.70;99.90;;;;;;5133085;27;20176;-74
2023/05/11 01:10:30;;;;;;;43.13;22.58;;;11.70;99.90;;;;;;5134595;27;20521;-74
2023/05/11 01:13:16;;;;;;;45.70;23.33;;;11.70;99.90;;;;;;5132828;28;20222;-74
2023/05/11 01:15:55;;;;;;;47.33;23.50;;;11.70;99.90;;;;;;5112687;27;20535;-74
2023/05/11 01:18:33;;;;;;;48.80;22.98;;;11.70;99.90;;;;;;5134209;28;20683;-74
2023/05/11 01:21:03;;;;;;;42.55;21.70;;;11.80;99.90;;;;;;5134124;27;20210;-74
2023/05/11 01:23:34;;;;;;;45.92;22.95;;;11.80;99.90;;;;;;5132751;27;20174;-74
2023/05/11 01:26:09;;;;;;;44.38;22.95;;;11.80;99.90;;;;;;5134101;27;20171;-74
2023/05/11 01:29:20;;;;;;;43.00;22.48;;;11.80;99.90;;;;;;5132737;28;20209;-74
2023/05/11 01:31:47;;;;;;;41.00;20.80;;;11.80;99.90;;;;;;5132749;27;20196;-74
2023/05/11 01:34:20;;;;;;;43.67;21.52;;;11.80;99.90;;;;;;5134372;27;20600;-74
2023/05/11 01:36:53;;;;;;;44.53;22.00;;;11.80;99.90;;;;;;5134285;28;20224;-74
2023/05/11 01:39:26;;;;;;;41.13;20.92;;;11.70;99.90;;;;;;5134263;27;20184;-74
2023/05/11 01:41:54;;;;;;;41.78;20.50;;;11.60;99.90;;;;;;5133977;27;20641;-74
2023/05/11 01:44:24;;;;;;;35.42;20.08;;;11.70;99.90;;;;;;5134232;27;20224;-74
2023/05/11 01:46:51;;;;;;;42.28;21.70;;;11.70;99.90;;;;;;5136693;27;20178;-74
2023/05/11 01:49:18;;;;;;;43.35;21.25;;;11.60;99.90;;;;;;5136398;27;20182;-74
2023/05/11 01:51:45;;;;;;;38.22;19.33;;;11.60;99.90;;;;;;5136288;27;20202;-74
2023/05/11 01:54:11;;;;;;;42.83;21.63;;;11.70;99.90;;;;;;5137834;27;20528;-74
2023/05/11 01:56:40;;;;;;;41.88;21.45;;;11.70;99.90;;;;;;5137613;27;20178;-74
2023/05/11 01:59:06;;;;;;;42.20;21.20;;;11.60;99.90;;;;;;5135951;27;20199;-74
2023/05/11 02:01:37;;;;;;;39.58;21.90;;;11.60;99.90;;;;;;5137682;27;20679;-74
2023/05/11 02:04:04;;;;;;;45.17;22.65;;;11.60;99.90;;;;;;5137962;27;20175;-74
2023/05/11 02:06:33;;;;;;;39.97;22.00;;;11.60;99.90;;;;;;5137339;27;20663;-74
2023/05/11 02:09:00;;;;;;;44.13;21.95;;;11.60;99.90;;;;;;5137324;27;20237;-74
2023/05/11 02:11:28;;;;;;;44.55;22.88;;;11.60;99.90;;;;;;5137248;27;20192;-74
2023/05/11 02:13:55;;;;;;;47.22;22.83;;;11.60;99.90;;;;;;5135793;27;20250;-73
2023/05/11 02:16:23;;;;;;;40.60;20.33;;;11.70;99.90;;;;;;5138162;27;20160;-75
2023/05/11 02:18:49;;;;;;;37.67;21.58;;;11.70;99.90;;;;;;5135597;27;20293;-74
2023/05/11 02:21:16;;;;;;;35.65;20.20;;;11.70;99.90;;;;;;5135951;27;20219;-74
2023/05/11 02:23:43;;;;;;;42.25;22.48;;;11.70;99.90;;;;;;5139202;27;20173;-74
2023/05/11 02:26:11;;;;;;;38.05;21.00;;;11.80;99.90;;;;;;5142126;27;20169;-74
2023/05/11 02:28:37;;;;;;;41.20;20.70;;;11.70;99.90;;;;;;5136914;27;20187;-74
2023/05/11 02:31:11;;;;;;;39.67;20.52;;;11.70;99.90;;;;;;5136877;27;20187;-74
2023/05/11 02:33:43;;;;;;;46.55;22.30;;;11.70;99.90;;;;;;5136910;27;20155;-74
2023/05/11 02:36:12;;;;;;;40.85;22.23;;;11.70;99.90;;;;;;5135904;27;20180;-72
2023/05/11 02:38:40;;;;;;;40.17;20.80;;;11.80;99.90;;;;;;5135314;27;20167;-72
2023/05/11 02:41:12;;;;;;;40.85;21.63;;;11.80;99.90;;;;;;5136754;27;20188;-72
2023/05/11 02:43:45;;;;;;;38.17;21.55;;;11.80;99.90;;;;;;5135413;27;20696;-72
2023/05/11 02:46:16;;;;;;;34.92;19.42;;;11.90;99.90;;;;;;5135457;27;20160;-72
2023/05/11 02:48:49;;;;;;;36.92;20.05;;;11.80;99.90;;;;;;5136691;27;20289;-73
2023/05/11 02:51:17;;;;;;;32.08;19.60;;;11.80;99.90;;;;;;5136428;27;20184;-73
2023/05/11 02:53:46;;;;;;;32.75;19.90;;;11.80;99.90;;;;;;5136487;27;20164;-72
2023/05/11 02:56:12;;;;;;;32.60;18.35;;;11.90;99.90;;;;;;5136120;27;20186;-72
2023/05/11 02:58:38;;;;;;;35.67;19.30;;;11.80;99.90;;;;;;5135359;27;20200;-72
2023/05/11 03:01:07;;;;;;;31.85;19.63;;;11.80;99.90;;;;;;5134796;27;20226;-73
2023/05/11 03:03:33;;;;;;;35.92;19.75;;;11.80;99.90;;;;;;5136439;27;20213;-72
2023/05/11 03:05:58;;;;;;;38.58;20.45;;;11.80;99.90;;;;;;5134861;27;20179;-72
2023/05/11 03:08:24;;;;;;;31.45;19.17;;;11.80;99.90;;;;;;5136184;27;20179;-72
2023/05/11 03:10:51;;;;;;;35.53;19.40;;;11.80;99.90;;;;;;5135973;27;20168;-71
2023/05/11 03:13:19;;;;;;;34.40;19.20;;;11.80;99.90;;;;;;5136103;27;20588;-73
2023/05/11 03:15:46;;;;;;;39.97;20.00;;;11.80;99.90;;;;;;5136038;27;20254;-72
2023/05/11 03:18:12;;;;;;;40.15;21.33;;;11.80;99.90;;;;;;5136015;27;20176;-72
2023/05/11 03:20:41;;;;;;;42.92;21.55;;;11.80;99.90;;;;;;5135872;27;20527;-72
2023/05/11 03:23:08;;;;;;;37.83;20.17;;;11.70;99.90;;;;;;5136495;27;20176;-71
2023/05/11 03:25:34;;;;;;;39.08;20.48;;;11.70;99.90;;;;;;5135855;27;20167;-74
2023/05/11 03:28:02;;;;;;;42.63;21.48;;;11.70;99.90;;;;;;5135859;27;20201;-74
2023/05/11 03:30:28;;;;;;;42.80;20.85;;;11.70;99.90;;;;;;5134407;27;20180;-74
2023/05/11 03:32:54;;;;;;;44.70;22.58;;;11.70;99.90;;;;;;5135687;27;20223;-74
2023/05/11 03:35:24;;;;;;;43.00;22.45;;;11.70;99.90;;;;;;5134364;27;20256;-74
2023/05/11 03:37:51;;;;;;;39.00;21.35;;;11.70;99.90;;;;;;5135732;27;20163;-74
2023/05/11 03:40:18;;;;;;;41.95;22.48;;;11.60;99.90;;;;;;5134477;27;20787;-74
2023/05/11 03:42:45;;;;;;;44.20;22.55;;;11.60;99.90;;;;;;5136160;27;20188;-73
2023/05/11 03:45:13;;;;;;;41.20;22.67;;;11.60;99.90;;;;;;5137822;27;20243;-73
2023/05/11 03:47:41;;;;;;;38.85;21.52;;;11.70;99.90;;;;;;5137726;27;20220;-73
2023/05/11 03:50:08;;;;;;;43.42;22.90;;;11.70;99.90;;;;;;5136405;27;20182;-73
2023/05/11 03:52:35;;;;;;;45.13;22.98;;;11.70;99.90;;;;;;5135800;27;20210;-72
2023/05/11 03:55:02;;;;;;;46.72;23.65;;;11.70;99.90;;;;;;5134397;27;20176;-72
2023/05/11 03:57:28;;;;;;;45.10;24.35;;;11.70;99.90;;;;;;5134252;27;20577;-73
2023/05/11 03:59:54;;;;;;;51.25;23.75;;;11.60;99.90;;;;;;5135145;27;20203;-73
2023/05/11 04:02:23;;;;;;;45.53;23.27;;;11.60;99.90;;;;;;5133599;27;20218;-72
2023/05/11 04:04:49;;;;;;;49.85;24.63;;;11.60;99.90;;;;;;5133670;27;20666;-72
2023/05/11 04:07:15;;;;;;;49.10;25.60;;;11.60;99.90;;;;;;5135229;27;20200;-72
2023/05/11 04:09:40;;;;;;;49.95;24.60;;;11.60;99.90;;;;;;5134976;27;20172;-72
2023/05/11 04:12:06;;;;;;;46.45;24.13;;;11.70;99.90;;;;;;5133807;27;20662;-72
2023/05/11 04:14:32;;;;;;;48.47;25.30;;;11.70;99.90;;;;;;5135118;27;20174;-72
2023/05/11 04:16:58;;;;;;;42.92;24.75;;;11.70;99.90;;;;;;5142310;27;20175;-72
2023/05/11 04:19:24;;;;;;;47.92;24.65;;;11.70;99.90;;;;;;5133834;27;20611;-72
2023/05/11 04:21:49;;;;;;;54.47;25.67;;;11.70;99.90;;;;;;5135369;27;20184;-72
2023/05/11 04:24:15;;;;;;;56.45;28.08;;;11.70;99.90;;;;;;5135686;27;20233;-72
2023/05/11 04:26:41;;;;;;;61.58;28.38;;;11.60;99.90;;;;;;5135111;27;20179;-71
2023/05/11 04:29:07;;;;;;;49.63;26.13;;;11.70;99.90;;;;;;5135391;27;20207;-72
2023/05/11 04:31:32;;;;;;;53.67;27.15;;;11.70;99.90;;;;;;5135129;27;20278;-71
2023/05/11 04:33:58;;;;;;;51.63;26.52;;;11.70;99.90;;;;;;5133434;27;20176;-71
2023/05/11 04:36:24;;;;;;;53.50;26.70;;;11.80;99.90;;;;;;5134627;27;20697;-71
2023/05/11 04:38:51;;;;;;;58.60;26.80;;;11.90;99.90;;;;;;5133260;27;20554;-71
2023/05/11 04:41:17;;;;;;;54.38;27.02;;;11.90;99.90;;;;;;5135412;27;20278;-71
2023/05/11 04:43:43;;;;;;;46.17;24.98;;;11.90;99.90;;;;;;5133041;27;20712;-72
2023/05/11 04:46:09;;;;;;;43.65;24.58;;;11.90;99.90;;;;;;5133262;28;20309;-72
2023/05/11 04:48:35;;;;;;;44.88;23.42;;;12.00;99.90;;;;;;5134811;27;20534;-71
2023/05/11 04:51:04;;;;;;;43.67;23.42;;;12.00;99.90;;;;;;5133113;28;20192;-71
2023/05/11 04:53:30;;;;;;;39.40;21.88;;;12.00;99.90;;;;;;5133052;27;20175;-72
2023/05/11 04:55:56;;;;;;;46.83;24.70;;;12.00;99.90;;;;;;5134685;27;20185;-72
2023/05/11 04:58:22;;;;;;;41.42;22.17;;;12.00;99.90;;;;;;5134879;27;20199;-71
2023/05/11 05:00:48;;;;;;;43.35;23.88;;;12.10;99.90;;;;;;5134109;27;20199;-72
2023/05/11 05:03:14;;;;;;;43.63;23.75;;;12.10;99.90;;;;;;5134444;27;20176;-71
2023/05/11 05:05:39;;;;;;;45.25;24.55;;;12.10;99.90;;;;;;5135345;27;20651;-71
2023/05/11 05:08:06;;;;;;;42.70;24.25;;;12.10;99.90;;;;;;5134868;27;20172;-71
2023/05/11 05:10:32;;;;;;;42.05;23.63;;;12.10;99.90;;;;;;5134684;27;20188;-71
2023/05/11 05:12:58;;;;;;;44.75;24.75;;;12.10;99.90;;;;;;5134663;27;20191;-71
2023/05/11 05:15:25;;;;;;;42.03;24.38;;;12.10;99.90;;;;;;5133582;28;20647;-71
2023/05/11 05:17:51;;;;;;;48.13;27.02;;;12.10;99.90;;;;;;5134321;27;20203;-71
2023/05/11 05:20:16;;;;;;;51.17;25.98;;;12.00;99.90;;;;;;5136183;27;20199;-71
2023/05/11 05:22:42;;;;;;;48.75;25.00;;;12.00;99.90;;;;;;5136815;27;20248;-71
2023/05/11 05:25:08;;;;;;;51.33;27.75;;;12.00;99.90;;;;;;5136852;27;20613;-71
2023/05/11 05:27:34;;;;;;;41.67;25.52;;;12.00;99.90;;;;;;5136887;27;20176;-72
2023/05/11 05:30:00;;;;;;;50.17;27.60;;;12.00;99.90;;;;;;5138323;27;20206;-72
2023/05/11 05:32:25;;;;;;;46.70;27.58;;;12.00;99.90;;;;;;5137907;27;20200;-72
2023/05/11 05:34:52;;;;;;;52.67;26.83;;;12.10;99.90;;;;;;5138763;27;20652;-72
2023/05/11 05:37:18;;;;;;;52.60;28.20;;;12.00;99.90;;;;;;5138047;27;20228;-71
2023/05/11 05:39:44;;;;;;;55.28;28.65;;;12.00;99.90;;;;;;5138137;27;20270;-72
2023/05/11 05:42:10;;;;;;;53.92;28.70;;;12.10;99.90;;;;;;5137835;27;20191;-72
2023/05/11 05:44:35;;;;;;;58.75;30.42;;;12.00;99.90;;;;;;5138017;27;20168;-72
2023/05/11 05:47:01;;;;;;;60.83;30.33;;;12.00;99.90;;;;;;5138027;27;20248;-71
2023/05/11 05:49:27;;;;;;;57.95;30.08;;;12.00;99.90;;;;;;5137872;27;20225;-71
2023/05/11 05:51:53;;;;;;;57.83;30.88;;;12.00;99.90;;;;;;5137438;27;20187;-72
2023/05/11 05:54:19;;;;;;;58.00;31.08;;;12.10;99.90;;;;;;5138089;27;20592;-71
2023/05/11 05:56:45;;;;;;;58.30;31.15;;;12.20;99.90;;;;;;5136238;27;20213;-72
2023/05/11 05:59:13;;;;;;;58.15;30.60;;;12.20;99.90;;;;;;5136101;27;20239;-71
2023/05/11 06:01:45;;;;;;;64.18;32.58;;;12.20;99.90;;;;;;5139685;27;20195;-73
2023/05/11 06:04:14;;;;;;;63.42;33.70;;;12.20;99.90;;;;;;5138336;27;20608;-73
2023/05/11 06:06:40;;;;;;;66.65;33.25;;;12.20;99.90;;;;;;5136334;27;20188;-73
2023/05/11 06:09:06;;;;;;;62.90;31.83;;;12.30;99.90;;;;;;5138660;27;20164;-73
2023/05/11 06:11:32;;;;;;;69.47;33.40;;;12.30;99.90;;;;;;5136708;27;20206;-73
2023/05/11 06:13:58;;;;;;;64.55;32.78;;;12.40;99.90;;;;;;5138357;27;20183;-73
2023/05/11 06:16:26;;;;;;;65.85;33.72;;;12.40;99.90;;;;;;5138063;27;20178;-73
2023/05/11 06:18:53;;;;;;;68.05;32.78;;;12.50;99.90;;;;;;5137315;27;20172;-73
2023/05/11 06:21:18;;;;;;;60.72;31.52;;;12.60;99.90;;;;;;5135937;27;20187;-71
2023/05/11 06:23:44;;;;;;;60.28;32.03;;;12.60;99.90;;;;;;5137272;27;20663;-71
2023/05/11 06:26:10;;;;;;;66.60;32.90;;;12.60;99.90;;;;;;5136571;27;20172;-71
2023/05/11 06:28:36;;;;;;;61.33;31.80;;;12.70;99.90;;;;;;5136857;27;20593;-71
2023/05/11 06:31:02;;;;;;;67.07;32.72;;;12.70;99.90;;;;;;5136460;27;20187;-71
2023/05/11 06:33:28;;;;;;;61.50;32.15;;;12.70;99.90;;;;;;5137585;27;20175;-71
2023/05/11 06:35:54;;;;;;;54.45;29.15;;;12.70;99.90;;;;;;5135317;27;20267;-71
2023/05/11 06:38:20;;;;;;;59.00;30.88;;;12.80;99.90;;;;;;5135310;27;20266;-71
2023/05/11 06:40:46;;;;;;;56.08;30.50;;;12.80;99.90;;;;;;5136329;27;20200;-71
2023/05/11 06:43:11;;;;;;;60.42;33.03;;;12.80;99.90;;;;;;5136713;27;20582;-71
2023/05/11 06:45:37;;;;;;;58.78;32.78;;;12.80;99.90;;;;;;5136410;27;20179;-71
2023/05/11 06:48:03;;;;;;;61.83;32.42;;;12.80;99.90;;;;;;5136373;27;20212;-71
2023/05/11 06:50:29;;;;;;;57.28;31.70;;;12.90;99.90;;;;;;5134998;27;20175;-71
2023/05/11 06:52:55;;;;;;;60.72;32.67;;;13.00;99.90;;;;;;5134949;27;20196;-71
2023/05/11 06:55:21;;;;;;;58.22;31.48;;;13.00;99.90;;;;;;5134957;27;20656;-71
2023/05/11 06:57:46;;;;;;;58.58;31.98;;;13.00;99.90;;;;;;5136746;27;20717;-71
2023/05/11 07:00:13;;;;;;;57.75;32.22;;;12.90;99.90;;;;;;5136013;27;20199;-71
2023/05/11 07:02:38;;;;;;;56.20;31.63;;;13.00;99.90;;;;;;5135870;27;20214;-71
2023/05/11 07:05:04;;;;;;;60.42;32.53;;;13.00;99.90;;;;;;5135962;27;20175;-71
2023/05/11 07:07:30;;;;;;;56.42;31.83;;;13.00;99.90;;;;;;5136118;27;20171;-71
2023/05/11 07:09:56;;;;;;;57.55;33.58;;;13.10;99.90;;;;;;5136187;27;20174;-71
2023/05/11 07:12:22;;;;;;;55.42;32.92;;;13.00;99.90;;;;;;5134493;27;20221;-71
2023/05/11 07:14:47;;;;;;;51.42;28.73;;;13.10;99.90;;;;;;5135974;27;20175;-71
2023/05/11 07:17:13;;;;;;;55.13;30.38;;;13.20;99.90;;;;;;5136333;27;20538;-71
2023/05/11 07:19:39;;;;;;;50.38;29.77;;;13.20;99.90;;;;;;5135895;27;20199;-72
2023/05/11 07:22:04;;;;;;;51.20;29.80;;;13.30;99.90;;;;;;5135834;27;20222;-72
2023/05/11 07:24:31;;;;;;;47.47;29.13;;;13.40;99.90;;;;;;5134283;27;20550;-72
2023/05/11 07:26:56;;;;;;;53.25;29.65;;;13.40;99.90;;;;;;5134266;27;20593;-72
2023/05/11 07:29:22;;;;;;;47.17;28.45;;;13.30;99.90;;;;;;5134111;27;20211;-72
2023/05/11 07:31:48;;;;;;;48.22;27.92;;;13.30;99.90;;;;;;5135459;27;20199;-72
2023/05/11 07:34:13;;;;;;;47.45;28.90;;;13.40;99.90;;;;;;5134176;27;20191;-72
2023/05/11 07:36:39;;;;;;;47.40;29.50;;;13.40;99.90;;;;;;5133953;27;20187;-72
2023/05/11 07:39:05;;;;;;;50.17;30.15;;;13.50;99.90;;;;;;5135234;27;20200;-72
2023/05/11 07:41:31;;;;;;;50.83;28.40;;;13.40;99.90;;;;;;5134721;27;20318;-72
2023/05/11 07:44:00;;;;;;;43.50;26.90;;;13.30;99.90;;;;;;5135645;27;20521;-72
2023/05/11 07:46:25;;;;;;;41.38;26.58;;;13.30;99.90;;;;;;5135194;27;20654;-72
2023/05/11 07:48:51;;;;;;;44.42;26.73;;;13.40;99.90;;;;;;5133882;27;20180;-72
2023/05/11 07:51:17;;;;;;;43.72;27.52;;;13.40;99.90;;;;;;5135106;27;20190;-72
2023/05/11 07:53:43;;;;;;;45.33;25.95;;;13.40;99.90;;;;;;5133838;27;20159;-72
2023/05/11 07:56:09;;;;;;;44.55;26.17;;;13.50;99.90;;;;;;5135239;27;20656;-70
2023/05/11 07:58:35;;;;;;;43.00;26.48;;;13.50;99.90;;;;;;5134972;27;20247;-70
2023/05/11 08:01:01;;;;;;;44.47;26.05;;;13.50;99.90;;;;;;5134622;27;20302;-69
2023/05/11 08:03:26;;;;;;;40.00;25.92;;;13.60;99.90;;;;;;5135015;27;20167;-69
2023/05/11 08:05:52;;;;;;;46.10;26.15;;;13.60;99.90;;;;;;5121817;27;20180;-71
2023/05/11 08:08:18;;;;;;;41.90;26.05;;;13.60;99.90;;;;;;5113084;28;20199;-71
2023/05/11 08:10:44;;;;;;;44.72;27.00;;;13.60;99.90;;;;;;5114201;28;20176;-71
2023/05/11 08:13:09;;;;;;;39.50;25.38;;;13.70;99.90;;;;;;5114739;28;20226;-71
2023/05/11 08:15:35;;;;;;;41.08;26.35;;;13.60;99.90;;;;;;5112763;28;20200;-71
2023/05/11 08:18:01;;;;;;;38.83;23.95;;;13.60;99.90;;;;;;5114179;28;20241;-71
2023/05/11 08:20:27;;;;;;;42.05;24.88;;;13.60;99.90;;;;;;5114061;28;20223;-70
2023/05/11 08:22:53;;;;;;;40.38;23.27;;;13.50;99.90;;;;;;5112783;28;20219;-71
2023/05/11 08:25:19;;;;;;;38.60;24.02;;;13.60;99.90;;;;;;5114125;28;20176;-71
2023/05/11 08:27:44;;;;;;;40.50;24.10;;;13.60;99.90;;;;;;5114535;28;20273;-71
2023/05/11 08:30:11;;;;;;;40.83;24.98;;;13.60;99.90;;;;;;5113979;28;20163;-71
2023/05/11 08:32:38;;;;;;;41.35;25.73;;;13.70;99.90;;;;;;5114141;28;20227;-70
2023/05/11 08:35:04;;;;;;;36.72;24.08;;;13.70;99.90;;;;;;5119015;27;20207;-71
2023/05/11 08:37:30;;;;;;;38.22;24.58;;;13.80;99.90;;;;;;5134387;27;20179;-71
2023/05/11 08:39:56;;;;;;;42.00;25.20;;;13.90;99.90;;;;;;5134322;27;20203;-71
2023/05/11 08:42:24;;;;;;;38.17;24.27;;;14.00;99.90;;;;;;5133071;28;20195;-71
2023/05/11 08:44:54;;;;;;;39.17;24.50;;;14.10;99.90;;;;;;5134187;27;20185;-71
2023/05/11 08:47:20;;;;;;;36.90;23.00;;;14.20;99.90;;;;;;5134272;27;20159;-71
2023/05/11 08:49:46;;;;;;;37.63;23.05;;;14.30;99.90;;;;;;5134565;27;20548;-71
2023/05/11 08:52:15;;;;;;;35.25;22.88;;;14.40;99.90;;;;;;5133141;27;20560;-71
2023/05/11 08:54:40;;;;;;;39.30;23.98;;;14.50;99.90;;;;;;5136578;27;20176;-71
2023/05/11 08:57:07;;;;;;;36.97;24.23;;;14.70;99.90;;;;;;5138491;27;20234;-71
2023/05/11 08:59:33;;;;;;;33.10;22.60;;;14.90;99.90;;;;;;5138338;27;20286;-71
2023/05/11 09:02:03;;;;;;;34.60;21.17;;;15.10;99.90;;;;;;5138508;27;20231;-71
2023/05/11 09:04:37;;;;;;;30.90;20.63;;;15.20;99.90;;;;;;5136997;27;20199;-71
2023/05/11 09:07:07;;;;;;;32.63;21.05;;;15.10;99.90;;;;;;5138444;27;20206;-71
2023/05/11 09:09:33;;;;;;;29.75;20.95;;;15.20;99.90;;;;;;5136967;27;20199;-70
2023/05/11 09:12:08;;;;;;;29.90;20.27;;;15.80;99.90;;;;;;5138151;27;20199;-71
2023/05/11 09:14:41;;;;;;;26.52;18.42;;;16.30;99.90;;;;;;5136522;27;20175;-71
2023/05/11 09:17:11;;;;;;;26.88;18.77;;;17.10;99.90;;;;;;5135425;27;20598;-71
2023/05/11 09:20:09;;;;;;;27.88;18.77;;;17.30;99.90;;;;;;5136847;27;20200;-71
2023/05/11 09:22:45;;;;;;;25.95;17.83;;;17.60;99.90;;;;;;5137663;27;20262;-70
2023/05/11 09:25:16;;;;;;;23.42;17.23;;;18.30;99.90;;;;;;5137664;27;20266;-70
2023/05/11 09:27:44;;;;;;;24.45;17.33;;;18.70;84.80;;;;;;5138291;27;20159;-70
2023/05/11 09:30:18;;;;;;;24.88;17.77;;;19.00;76.40;;;;;;5138671;27;20167;-70
2023/05/11 09:32:48;;;;;;;27.92;19.15;;;19.50;99.90;;;;;;5139309;27;20191;-72
2023/05/11 09:35:30;;;;;;;26.08;18.05;;;19.20;1.00;;;;;;5138588;27;20179;-71
2023/05/11 09:37:56;;;;;;;25.17;17.00;;;18.80;1.00;;;;;;5138605;27;20635;-71
2023/05/11 09:40:22;;;;;;;23.02;16.95;;;18.60;21.40;;;;;;5136450;27;20199;-71
2023/05/11 09:42:48;;;;;;;20.90;16.65;;;18.60;3.30;;;;;;5136309;27;20203;-71
2023/05/11 09:45:32;;;;;;;22.65;15.98;;;18.80;26.60;;;;;;5137657;27;20595;-71
2023/05/11 09:47:58;;;;;;;18.50;14.45;;;18.90;1.00;;;;;;5137574;27;20160;-71
2023/05/11 09:50:24;;;;;;;22.17;16.30;;;19.20;1.00;;;;;;5138111;27;20383;-71
2023/05/11 09:52:50;;;;;;;19.13;15.70;;;19.00;1.00;;;;;;5137734;27;20192;-73
2023/05/11 09:55:16;;;;;;;19.63;14.95;;;19.10;25.00;;;;;;5137741;27;20628;-73
2023/05/11 09:57:51;;;;;;;21.60;15.13;;;19.20;1.00;;;;;;5137386;27;20183;-73
2023/05/11 10:00:17;;;;;;;19.42;13.60;;;19.60;1.00;;;;;;5137369;27;20686;-72
2023/05/11 10:02:42;;;;;;;16.40;13.30;;;19.60;99.90;;;;;;5135811;27;20302;-71
2023/05/11 10:05:12;;;;;;;15.85;13.25;;;19.80;1.00;;;;;;5135558;27;20552;-71
2023/05/11 10:07:38;;;;;;;15.65;13.20;;;20.10;99.90;;;;;;5137777;27;20164;-71
2023/05/11 10:10:06;;;;;;;16.60;12.82;;;20.20;99.90;;;;;;5137073;27;20547;-71
2023/05/11 10:12:36;;;;;;;16.92;12.73;;;20.20;99.90;;;;;;5137358;27;20203;-71
2023/05/11 10:15:08;;;;;;;19.10;14.07;;;20.00;1.00;;;;;;5135601;27;20168;-71
2023/05/11 10:17:34;;;;;;;18.55;15.15;;;20.10;1.00;;;;;;5136945;27;20258;-69
2023/05/11 10:20:03;;;;;;;22.73;17.45;;;20.00;99.90;;;;;;5136809;27;20227;-69
2023/05/11 10:22:29;;;;;;;23.48;17.67;;;19.60;1.00;;;;;;5136791;27;20183;-69
2023/05/11 10:24:58;;;;;;;23.95;18.00;;;19.00;1.00;;;;;;5136913;27;20567;-69
2023/05/11 10:27:25;;;;;;;29.75;20.17;;;18.40;1.00;;;;;;5137344;27;20172;-70
2023/05/11 10:29:51;;;;;;;25.40;18.60;;;17.90;12.80;;;;;;5135306;27;20245;-71
2023/05/11 10:32:18;;;;;;;25.52;19.67;;;17.50;74.80;;;;;;5136696;27;20652;-70
2023/05/11 10:34:45;;;;;;;25.33;18.27;;;17.40;99.20;;;;;;5136608;27;20199;-71
2023/05/11 10:37:16;;;;;;;26.20;19.52;;;17.20;99.90;;;;;;5135290;27;20176;-70
2023/05/11 10:39:43;;;;;;;26.52;18.88;;;17.10;99.90;;;;;;5136802;27;20187;-70
2023/05/11 10:42:32;;;;;;;28.42;18.42;;;17.00;99.90;;;;;;5136675;27;20275;-70
2023/05/11 10:45:21;;;;;;;27.30;17.98;;;17.00;99.90;;;;;;5135054;27;20168;-71
2023/05/11 10:48:02;;;;;;;27.25;19.48;;;17.10;99.90;;;;;;5135084;27;20175;-70
2023/05/11 10:50:47;;;;;;;26.67;17.42;;;17.30;99.90;;;;;;5135030;27;20182;-70
2023/05/11 10:53:26;;;;;;;24.08;16.77;;;17.30;99.90;;;;;;5136535;27;20572;-70
2023/05/11 10:56:16;;;;;;;25.65;17.42;;;17.50;97.70;;;;;;5136545;27;20184;-71
2023/05/11 10:59:17;;;;;;;25.42;17.98;;;17.70;99.90;;;;;;5134876;27;20183;-71
2023/05/11 11:01:43;;;;;;;24.00;16.48;;;17.90;90.40;;;;;;5092872;28;20255;-71
2023/05/11 11:04:13;;;;;;;22.42;16.20;;;17.80;99.90;;;;;;5127339;27;20191;-70
2023/05/11 11:06:42;;;;;;;24.50;17.83;;;17.70;99.90;;;;;;5135920;27;20175;-70
2023/05/11 11:09:14;;;;;;;24.83;17.02;;;17.60;63.70;;;;;;5136205;27;20553;-70
2023/05/11 11:11:41;;;;;;;26.35;18.08;;;17.50;97.30;;;;;;5136359;27;20276;-71
2023/05/11 11:14:08;;;;;;;23.45;17.50;;;17.50;99.90;;;;;;5136193;27;20592;-70
2023/05/11 11:16:36;;;;;;;25.40;17.60;;;17.40;99.90;;;;;;5135238;27;20249;-70
2023/05/11 11:19:29;;;;;;;20.58;15.73;;;17.50;99.90;;;;;;5136513;27;20160;-72
2023/05/11 11:21:56;;;;;;;19.52;16.02;;;17.80;99.90;;;;;;5136092;27;20190;-71
2023/05/11 11:24:39;;;;;;;21.95;16.15;;;18.10;99.90;;;;;;5135946;27;20517;-71
2023/05/11 11:27:07;;;;;;;21.25;15.88;;;18.20;19.30;;;;;;5135974;27;20612;-71
2023/05/11 11:29:37;;;;;;;20.25;14.88;;;18.20;1.00;;;;;;5135592;27;20182;-71
2023/05/11 11:32:18;;;;;;;19.88;15.20;;;18.20;1.00;;;;;;5134497;27;20196;-71
2023/05/11 11:34:45;;;;;;;18.67;13.70;;;18.20;1.00;;;;;;5136699;27;20510;-71
2023/05/11 11:37:12;;;;;;;14.95;12.15;;;18.10;1.00;;;;;;5134428;27;20241;-70
2023/05/11 11:39:40;;;;;;;19.85;14.98;;;18.00;1.00;;;;;;5135856;27;20204;-70
2023/05/11 11:42:17;;;;;;;16.77;13.85;;;18.00;57.30;;;;;;5135539;27;20203;-71
2023/05/11 11:44:44;;;;;;;16.40;12.50;;;18.00;16.10;;;;;;5135888;27;20159;-70
2023/05/11 11:47:11;;;;;;;16.25;13.05;;;17.80;1.00;;;;;;5134155;27;20176;-70
2023/05/11 11:49:38;;;;;;;16.70;12.82;;;17.70;1.00;;;;;;5135592;27;20650;-70
2023/05/11 11:52:07;;;;;;;19.02;13.52;;;17.70;1.00;;;;;;5135530;27;20192;-70
2023/05/11 11:54:40;;;;;;;17.05;13.40;;;17.60;1.00;;;;;;5135375;27;20625;-70
2023/05/11 11:57:28;;;;;;;17.83;14.13;;;17.50;1.00;;;;;;5135240;27;20640;-70
2023/05/11 11:59:54;;;;;;;16.02;13.35;;;17.50;5.00;;;;;;5133675;27;20286;-70
2023/05/11 12:02:22;;;;;;;19.02;13.82;;;17.60;2.00;;;;;;5133809;27;20235;-70
2023/05/11 12:05:01;;;;;;;14.77;11.90;;;17.60;1.00;;;;;;5135092;27;20187;-70
2023/05/11 12:07:31;;;;;;;14.00;12.00;;;17.70;1.00;;;;;;5135469;27;20187;-71
2023/05/11 12:09:58;;;;;;;15.90;12.65;;;17.80;1.00;;;;;;5135326;27;20243;-70
2023/05/11 12:12:24;;;;;;;14.90;11.88;;;17.90;1.00;;;;;;5135046;27;20194;-70
2023/05/11 12:14:50;;;;;;;15.90;11.93;;;17.90;1.00;;;;;;5133530;27;20635;-70
2023/05/11 12:17:24;;;;;;;13.48;10.43;;;18.00;1.00;;;;;;5134872;27;20263;-70
2023/05/11 12:19:50;;;;;;;13.15;10.13;;;18.00;1.00;;;;;;5135235;27;20192;-70
2023/05/11 12:22:24;;;;;;;13.50;10.57;;;18.00;1.00;;;;;;5134816;27;20211;-70
2023/05/11 12:24:54;;;;;;;12.20;9.23;;;18.10;1.00;;;;;;5133480;27;20202;-70
2023/05/11 12:27:20;;;;;;;12.38;9.40;;;18.20;1.00;;;;;;5134595;27;20274;-70
2023/05/11 12:29:50;;;;;;;11.65;9.18;;;18.20;1.00;;;;;;5134613;27;20617;-70
2023/05/11 12:32:28;;;;;;;13.23;9.77;;;18.30;1.00;;;;;;5133627;27;20569;-70
2023/05/11 12:35:01;;;;;;;14.02;9.10;;;18.30;1.00;;;;;;5134538;27;20175;-71